sensor_id;sensor_type;location;lat;lon;timestamp;pressure;altitude;pressure_sealevel;temperature;humidity
63654;BME280;49809;47.418;19.080;2023-02-14T00:02:35;102256.63;;;-1.31;100.00
63654;BME280;49809;47.418;19.080;2023-02-14T00:05:39;102256.91;;;-1.45;100.00
63654;BME280;49809;47.418;19.080;2023-02-14T00:08:43;102260.28;;;-1.54;100.00
63654;BME280;49809;47.418;19.080;2023-02-14T00:11:50;102261.47;;;-1.58;100.00
63654;BME280;49809;47.418;19.080;2023-02-14T00:14:54;102256.53;;;-1.61;100.00
63654;BME280;49809;47.418;19.080;2023-02-14T00:18:18;102260.56;;;-1.68;100.00
63654;BME280;49809;47.418;19.080;2023-02-14T00:21:21;102255.06;;;-1.74;100.00
63654;BME280;49809;47.418;19.080;2023-02-14T00:24:33;102258.59;;;-1.76;100.00
63654;BME280;49809;47.418;19.080;2023-02-14T00:27:38;102261.06;;;-1.74;100.00
63654;BME280;49809;47.418;19.080;2023-02-14T00:30:44;102256.38;;;-1.80;100.00
63654;BME280;49809;47.418;19.080;2023-02-14T00:33:49;102248.34;;;-1.88;100.00
63654;BME280;49809;47.418;19.080;2023-02-14T00:36:55;102244.94;;;-1.89;100.00
63654;BME280;49809;47.418;19.080;2023-02-14T00:39:58;102246.72;;;-1.89;100.00
63654;BME280;49809;47.418;19.080;2023-02-14T00:43:02;102236.84;;;-1.95;100.00
63654;BME280;49809;47.418;19.080;2023-02-14T00:46:06;102242.50;;;-1.90;100.00
63654;BME280;49809;47.418;19.080;2023-02-14T00:49:10;102253.22;;;-1.95;100.00
63654;BME280;49809;47.418;19.080;2023-02-14T00:52:14;102256.94;;;-2.08;100.00
63654;BME280;49809;47.418;19.080;2023-02-14T00:55:17;102249.47;;;-2.13;100.00
63654;BME280;49809;47.418;19.080;2023-02-14T00:58:21;102252.91;;;-2.12;100.00
63654;BME280;49809;47.418;19.080;2023-02-14T01:01:34;102247.25;;;-2.17;100.00
63654;BME280;49809;47.418;19.080;2023-02-14T01:04:37;102249.84;;;-2.17;100.00
63654;BME280;49809;47.418;19.080;2023-02-14T01:07:43;102248.22;;;-2.30;100.00
63654;BME280;49809;47.418;19.080;2023-02-14T01:10:49;102244.09;;;-2.32;100.00
63654;BME280;49809;47.418;19.080;2023-02-14T01:13:55;102240.69;;;-2.33;100.00
63654;BME280;49809;47.418;19.080;2023-02-14T01:16:59;102240.34;;;-2.28;100.00
63654;BME280;49809;47.418;19.080;2023-02-14T01:20:03;102245.16;;;-2.35;100.00
63654;BME280;49809;47.418;19.080;2023-02-14T01:23:07;102223.84;;;-2.38;100.00
63654;BME280;49809;47.418;19.080;2023-02-14T01:26:18;102222.03;;;-2.27;100.00
63654;BME280;49809;47.418;19.080;2023-02-14T01:29:23;102222.06;;;-2.38;100.00
63654;BME280;49809;47.418;19.080;2023-02-14T01:32:30;102222.31;;;-2.41;100.00
63654;BME280;49809;47.418;19.080;2023-02-14T01:35:36;102220.66;;;-2.42;100.00
63654;BME280;49809;47.418;19.080;2023-02-14T01:38:41;102211.09;;;-2.41;100.00
63654;BME280;49809;47.418;19.080;2023-02-14T01:41:46;102223.75;;;-2.48;100.00
63654;BME280;49809;47.418;19.080;2023-02-14T01:45:18;102218.50;;;-2.37;100.00
63654;BME280;49809;47.418;19.080;2023-02-14T01:48:24;102213.94;;;-2.44;100.00
63654;BME280;49809;47.418;19.080;2023-02-14T01:51:31;102216.31;;;-2.52;100.00
63654;BME280;49809;47.418;19.080;2023-02-14T01:54:36;102212.19;;;-2.55;100.00
63654;BME280;49809;47.418;19.080;2023-02-14T01:57:52;102209.22;;;-2.50;100.00
63654;BME280;49809;47.418;19.080;2023-02-14T02:01:02;102218.31;;;-2.56;100.00
63654;BME280;49809;47.418;19.080;2023-02-14T02:04:31;102220.31;;;-2.59;100.00
63654;BME280;49809;47.418;19.080;2023-02-14T02:07:38;102210.78;;;-2.59;100.00
63654;BME280;49809;47.418;19.080;2023-02-14T02:10:45;102212.19;;;-2.66;100.00
63654;BME280;49809;47.418;19.080;2023-02-14T02:13:48;102209.59;;;-2.66;100.00
63654;BME280;49809;47.418;19.080;2023-02-14T02:17:16;102205.72;;;-2.72;100.00
63654;BME280;49809;47.418;19.080;2023-02-14T02:20:38;102212.22;;;-2.77;100.00
63654;BME280;49809;47.418;19.080;2023-02-14T02:24:00;102194.16;;;-2.79;100.00
63654;BME280;49809;47.418;19.080;2023-02-14T02:28:06;102186.75;;;-2.72;100.00
63654;BME280;49809;47.418;19.080;2023-02-14T02:35:11;102190.28;;;-2.84;100.00
63654;BME280;49809;47.418;19.080;2023-02-14T02:42:07;102191.09;;;-2.84;100.00
63654;BME280;49809;47.418;19.080;2023-02-14T02:45:56;102189.13;;;-2.91;100.00
63654;BME280;49809;47.418;19.080;2023-02-14T02:53:44;102186.06;;;-2.96;100.00
63654;BME280;49809;47.418;19.080;2023-02-14T02:56:56;102186.63;;;-3.04;100.00
63654;BME280;49809;47.418;19.080;2023-02-14T03:00:06;102188.38;;;-3.04;100.00
63654;BME280;49809;47.418;19.080;2023-02-14T03:03:10;102179.34;;;-3.10;100.00
63654;BME280;49809;47.418;19.080;2023-02-14T03:06:44;102180.38;;;-3.13;100.00
63654;BME280;49809;47.418;19.080;2023-02-14T03:09:55;102174.47;;;-3.15;100.00
63654;BME280;49809;47.418;19.080;2023-02-14T03:20:23;102191.44;;;-3.22;100.00
63654;BME280;49809;47.418;19.080;2023-02-14T03:23:59;102183.44;;;-3.30;100.00
63654;BME280;49809;47.418;19.080;2023-02-14T03:31:08;102179.53;;;-3.24;100.00
63654;BME280;49809;47.418;19.080;2023-02-14T03:37:35;102177.66;;;-3.22;100.00
63654;BME280;49809;47.418;19.080;2023-02-14T03:40:59;102176.00;;;-3.34;100.00
63654;BME280;49809;47.418;19.080;2023-02-14T03:44:11;102174.56;;;-3.38;100.00
63654;BME280;49809;47.418;19.080;2023-02-14T03:47:29;102176.37;;;-3.39;100.00
63654;BME280;49809;47.418;19.080;2023-02-14T03:50:41;102180.22;;;-3.44;100.00
63654;BME280;49809;47.418;19.080;2023-02-14T03:53:55;102178.72;;;-3.36;100.00
63654;BME280;49809;47.418;19.080;2023-02-14T03:57:24;102181.50;;;-3.50;100.00
63654;BME280;49809;47.418;19.080;2023-02-14T04:05:00;102183.03;;;-3.47;100.00
63654;BME280;49809;47.418;19.080;2023-02-14T04:08:24;102182.34;;;-3.49;100.00
63654;BME280;49809;47.418;19.080;2023-02-14T04:11:33;102181.59;;;-3.52;100.00
63654;BME280;49809;47.418;19.080;2023-02-14T04:14:39;102178.91;;;-3.50;100.00
63654;BME280;49809;47.418;19.080;2023-02-14T04:17:51;102175.00;;;-3.56;100.00
63654;BME280;49809;47.418;19.080;2023-02-14T04:21:18;102170.09;;;-3.59;100.00
63654;BME280;49809;47.418;19.080;2023-02-14T04:24:31;102177.00;;;-3.59;100.00
63654;BME280;49809;47.418;19.080;2023-02-14T04:27:34;102181.22;;;-3.58;100.00
63654;BME280;49809;47.418;19.080;2023-02-14T04:30:39;102176.53;;;-3.53;100.00
63654;BME280;49809;47.418;19.080;2023-02-14T04:33:50;102176.53;;;-3.53;100.00
63654;BME280;49809;47.418;19.080;2023-02-14T04:36:56;102181.72;;;-3.53;100.00
63654;BME280;49809;47.418;19.080;2023-02-14T04:40:02;102186.88;;;-3.53;100.00
63654;BME280;49809;47.418;19.080;2023-02-14T04:43:09;102179.75;;;-3.49;100.00
63654;BME280;49809;47.418;19.080;2023-02-14T04:46:14;102181.50;;;-3.50;100.00
63654;BME280;49809;47.418;19.080;2023-02-14T04:49:29;102188.00;;;-3.44;100.00
63654;BME280;49809;47.418;19.080;2023-02-14T04:52:37;102186.44;;;-3.47;100.00
63654;BME280;49809;47.418;19.080;2023-02-14T04:55:50;102177.94;;;-3.60;100.00
63654;BME280;49809;47.418;19.080;2023-02-14T04:59:01;102182.03;;;-3.69;100.00
63654;BME280;49809;47.418;19.080;2023-02-14T05:02:20;102180.06;;;-3.65;100.00
63654;BME280;49809;47.418;19.080;2023-02-14T05:05:26;102189.91;;;-3.70;100.00
63654;BME280;49809;47.418;19.080;2023-02-14T05:08:32;102184.97;;;-3.73;100.00
63654;BME280;49809;47.418;19.080;2023-02-14T05:11:35;102190.78;;;-3.82;100.00
63654;BME280;49809;47.418;19.080;2023-02-14T05:14:42;102185.75;;;-3.84;100.00
63654;BME280;49809;47.418;19.080;2023-02-14T05:17:47;102189.16;;;-3.83;100.00
63654;BME280;49809;47.418;19.080;2023-02-14T05:20:59;102186.84;;;-3.75;100.00
63654;BME280;49809;47.418;19.080;2023-02-14T05:24:11;102184.50;;;-3.67;100.00
63654;BME280;49809;47.418;19.080;2023-02-14T05:27:19;102188.16;;;-3.70;100.00
63654;BME280;49809;47.418;19.080;2023-02-14T05:30:28;102188.94;;;-3.80;100.00
63654;BME280;49809;47.418;19.080;2023-02-14T05:33:59;102185.63;;;-3.82;100.00
63654;BME280;49809;47.418;19.080;2023-02-14T05:37:08;102194.09;;;-3.80;100.00
63654;BME280;49809;47.418;19.080;2023-02-14T05:40:26;102196.44;;;-3.88;100.00
63654;BME280;49809;47.418;19.080;2023-02-14T05:43:35;102191.94;;;-3.98;100.00
63654;BME280;49809;47.418;19.080;2023-02-14T05:46:46;102187.78;;;-4.00;100.00
63654;BME280;49809;47.418;19.080;2023-02-14T05:50:02;102192.87;;;-3.99;100.00
63654;BME280;49809;47.418;19.080;2023-02-14T05:53:08;102194.53;;;-3.98;100.00
63654;BME280;49809;47.418;19.080;2023-02-14T05:56:36;102200.03;;;-4.02;100.00
63654;BME280;49809;47.418;19.080;2023-02-14T05:59:48;102199.53;;;-4.07;100.00
63654;BME280;49809;47.418;19.080;2023-02-14T06:02:53;102201.97;;;-4.06;100.00
63654;BME280;49809;47.418;19.080;2023-02-14T06:06:12;102204.41;;;-3.91;100.00
63654;BME280;49809;47.418;19.080;2023-02-14T06:09:52;102205.84;;;-3.87;100.00
63654;BME280;49809;47.418;19.080;2023-02-14T06:13:02;102211.72;;;-3.85;100.00
63654;BME280;49809;47.418;19.080;2023-02-14T06:16:15;102211.50;;;-3.82;100.00
63654;BME280;49809;47.418;19.080;2023-02-14T06:23:12;102224.91;;;-3.77;100.00
63654;BME280;49809;47.418;19.080;2023-02-14T06:26:19;102217.16;;;-3.54;100.00
63654;BME280;49809;47.418;19.080;2023-02-14T06:29:22;102220.19;;;-3.48;100.00
63654;BME280;49809;47.418;19.080;2023-02-14T06:32:34;102221.03;;;-3.48;100.00
63654;BME280;49809;47.418;19.080;2023-02-14T06:35:38;102229.75;;;-3.49;100.00
63654;BME280;49809;47.418;19.080;2023-02-14T06:39:00;102239.28;;;-3.49;100.00
63654;BME280;49809;47.418;19.080;2023-02-14T06:42:05;102237.28;;;-3.46;100.00
63654;BME280;49809;47.418;19.080;2023-02-14T06:45:15;102245.44;;;-3.28;100.00
63654;BME280;49809;47.418;19.080;2023-02-14T06:48:21;102254.34;;;-2.97;100.00
63654;BME280;49809;47.418;19.080;2023-02-14T06:51:50;102254.38;;;-2.64;100.00
63654;BME280;49809;47.418;19.080;2023-02-14T06:54:53;102261.66;;;-2.47;100.00
63654;BME280;49809;47.418;19.080;2023-02-14T06:57:56;102255.91;;;-2.39;100.00
63654;BME280;49809;47.418;19.080;2023-02-14T07:01:00;102260.59;;;-2.22;100.00
63654;BME280;49809;47.418;19.080;2023-02-14T07:04:24;102258.34;;;-2.04;100.00
63654;BME280;49809;47.418;19.080;2023-02-14T07:07:27;102271.50;;;-1.85;100.00
63654;BME280;49809;47.418;19.080;2023-02-14T07:10:30;102269.91;;;-1.65;100.00
63654;BME280;49809;47.418;19.080;2023-02-14T07:13:53;102273.41;;;-1.35;100.00
63654;BME280;49809;47.418;19.080;2023-02-14T07:16:56;102270.22;;;-0.97;100.00
63654;BME280;49809;47.418;19.080;2023-02-14T07:20:21;102274.34;;;-0.73;100.00
63654;BME280;49809;47.418;19.080;2023-02-14T07:23:44;102270.41;;;-0.28;100.00
63654;BME280;49809;47.418;19.080;2023-02-14T07:26:51;102278.44;;;-0.10;100.00
63654;BME280;49809;47.418;19.080;2023-02-14T07:29:55;102273.22;;;-0.10;100.00
63654;BME280;49809;47.418;19.080;2023-02-14T07:34:00;102283.66;;;-0.01;100.00
63654;BME280;49809;47.418;19.080;2023-02-14T07:37:03;102288.63;;;0.22;100.00
63654;BME280;49809;47.418;19.080;2023-02-14T07:40:14;102294.34;;;0.06;100.00
63654;BME280;49809;47.418;19.080;2023-02-14T07:43:25;102291.63;;;0.17;100.00
63654;BME280;49809;47.418;19.080;2023-02-14T07:46:28;102294.25;;;0.36;100.00
63654;BME280;49809;47.418;19.080;2023-02-14T07:53:39;102305.22;;;0.59;100.00
63654;BME280;49809;47.418;19.080;2023-02-14T07:57:24;102294.37;;;0.73;100.00
63654;BME280;49809;47.418;19.080;2023-02-14T08:00:30;102302.62;;;0.59;100.00
63654;BME280;49809;47.418;19.080;2023-02-14T08:03:34;102305.63;;;0.64;100.00
63654;BME280;49809;47.418;19.080;2023-02-14T08:06:40;102307.81;;;0.78;100.00
63654;BME280;49809;47.418;19.080;2023-02-14T08:09:47;102304.37;;;0.97;100.00
63654;BME280;49809;47.418;19.080;2023-02-14T08:12:50;102309.97;;;1.12;100.00
63654;BME280;49809;47.418;19.080;2023-02-14T08:16:05;102292.94;;;1.17;100.00
63654;BME280;49809;47.418;19.080;2023-02-14T08:19:11;102291.81;;;1.29;100.00
63654;BME280;49809;47.418;19.080;2023-02-14T08:22:15;102291.53;;;1.33;100.00
63654;BME280;49809;47.418;19.080;2023-02-14T08:25:19;102294.41;;;1.39;100.00
63654;BME280;49809;47.418;19.080;2023-02-14T08:28:24;102288.59;;;1.55;100.00
63654;BME280;49809;47.418;19.080;2023-02-14T08:31:29;102291.75;;;1.76;100.00
63654;BME280;49809;47.418;19.080;2023-02-14T08:34:38;102295.47;;;1.83;100.00
63654;BME280;49809;47.418;19.080;2023-02-14T08:38:08;102291.53;;;1.97;100.00
63654;BME280;49809;47.418;19.080;2023-02-14T08:41:11;102294.28;;;1.95;100.00
63654;BME280;49809;47.418;19.080;2023-02-14T08:44:37;102301.72;;;2.17;100.00
63654;BME280;49809;47.418;19.080;2023-02-14T08:47:40;102294.91;;;2.42;100.00
63654;BME280;49809;47.418;19.080;2023-02-14T08:51:07;102287.37;;;2.39;100.00
63654;BME280;49809;47.418;19.080;2023-02-14T08:54:11;102293.50;;;2.48;100.00
63654;BME280;49809;47.418;19.080;2023-02-14T08:57:16;102292.28;;;2.78;100.00
63654;BME280;49809;47.418;19.080;2023-02-14T09:00:20;102288.84;;;2.77;100.00
63654;BME280;49809;47.418;19.080;2023-02-14T09:03:24;102296.28;;;2.64;100.00
63654;BME280;49809;47.418;19.080;2023-02-14T09:06:29;102295.38;;;2.73;100.00
63654;BME280;49809;47.418;19.080;2023-02-14T09:09:34;102286.28;;;3.03;100.00
63654;BME280;49809;47.418;19.080;2023-02-14T09:12:40;102292.50;;;3.28;99.26
63654;BME280;49809;47.418;19.080;2023-02-14T09:15:43;102291.59;;;3.45;97.12
63654;BME280;49809;47.418;19.080;2023-02-14T09:18:47;102280.59;;;3.67;96.49
63654;BME280;49809;47.418;19.080;2023-02-14T09:21:54;102286.22;;;3.88;95.18
63654;BME280;49809;47.418;19.080;2023-02-14T09:24:58;102284.78;;;4.02;93.34
63654;BME280;49809;47.418;19.080;2023-02-14T09:28:02;102289.84;;;3.96;93.23
63654;BME280;49809;47.418;19.080;2023-02-14T09:34:19;102286.97;;;4.55;88.78
63654;BME280;49809;47.418;19.080;2023-02-14T09:37:27;102285.84;;;4.58;87.09
63654;BME280;49809;47.418;19.080;2023-02-14T09:40:33;102295.84;;;4.95;87.82
63654;BME280;49809;47.418;19.080;2023-02-14T09:43:55;102287.81;;;4.96;85.37
63654;BME280;49809;47.418;19.080;2023-02-14T09:50:36;102281.84;;;5.74;82.54
63654;BME280;49809;47.418;19.080;2023-02-14T09:54:12;102287.72;;;5.92;81.92
63654;BME280;49809;47.418;19.080;2023-02-14T09:57:54;102289.38;;;5.85;79.13
63654;BME280;49809;47.418;19.080;2023-02-14T10:01:29;102286.50;;;6.33;77.56
63654;BME280;49809;47.418;19.080;2023-02-14T10:11:05;102280.75;;;6.52;74.41
63654;BME280;49809;47.418;19.080;2023-02-14T10:14:22;102279.22;;;6.35;74.83
63654;BME280;49809;47.418;19.080;2023-02-14T10:18:21;102275.53;;;6.44;74.89
63654;BME280;49809;47.418;19.080;2023-02-14T10:21:35;102278.16;;;6.44;74.99
63654;BME280;49809;47.418;19.080;2023-02-14T10:25:15;102273.16;;;6.58;74.49
63654;BME280;49809;47.418;19.080;2023-02-14T10:28:33;102272.88;;;6.52;75.20
63654;BME280;49809;47.418;19.080;2023-02-14T10:32:07;102265.75;;;6.38;75.49
63654;BME280;49809;47.418;19.080;2023-02-14T10:35:27;102266.31;;;6.48;75.41
63654;BME280;49809;47.418;19.080;2023-02-14T10:56:42;102248.91;;;6.85;72.33
63654;BME280;49809;47.418;19.080;2023-02-14T11:03:13;102241.81;;;6.85;71.62
63654;BME280;49809;47.418;19.080;2023-02-14T11:06:54;102234.56;;;7.02;71.72
63654;BME280;49809;47.418;19.080;2023-02-14T11:10:01;102230.22;;;7.09;70.76
63654;BME280;49809;47.418;19.080;2023-02-14T11:13:25;102234.94;;;7.14;70.70
63654;BME280;49809;47.418;19.080;2023-02-14T11:16:32;102237.47;;;7.36;70.38
63654;BME280;49809;47.418;19.080;2023-02-14T11:20:03;102230.06;;;7.25;70.85
63654;BME280;49809;47.418;19.080;2023-02-14T11:23:19;102239.47;;;7.49;69.35
63654;BME280;49809;47.418;19.080;2023-02-14T11:26:29;102230.59;;;8.28;68.78
63654;BME280;49809;47.418;19.080;2023-02-14T11:29:44;102235.25;;;8.69;64.75
63654;BME280;49809;47.418;19.080;2023-02-14T11:32:50;102230.97;;;8.96;65.09
63654;BME280;49809;47.418;19.080;2023-02-14T11:36:03;102219.81;;;9.82;62.00
63654;BME280;49809;47.418;19.080;2023-02-14T11:39:23;102224.25;;;9.75;59.67
63654;BME280;49809;47.418;19.080;2023-02-14T11:45:43;102212.63;;;11.41;56.00
63654;BME280;49809;47.418;19.080;2023-02-14T11:49:21;102214.50;;;11.71;54.16
63654;BME280;49809;47.418;19.080;2023-02-14T11:52:27;102213.31;;;11.23;55.23
63654;BME280;49809;47.418;19.080;2023-02-14T11:55:32;102208.69;;;10.92;56.22
63654;BME280;49809;47.418;19.080;2023-02-14T11:58:55;102218.31;;;11.44;54.58
63654;BME280;49809;47.418;19.080;2023-02-14T12:05:43;102218.47;;;10.32;56.18
63654;BME280;49809;47.418;19.080;2023-02-14T12:08:48;102214.22;;;10.77;54.92
63654;BME280;49809;47.418;19.080;2023-02-14T12:11:59;102207.81;;;11.11;54.22
63654;BME280;49809;47.418;19.080;2023-02-14T12:18:46;102210.75;;;10.57;55.36
63654;BME280;49809;47.418;19.080;2023-02-14T12:22:02;102203.22;;;10.41;55.38
63654;BME280;49809;47.418;19.080;2023-02-14T12:25:19;102204.59;;;10.04;56.79
63654;BME280;49809;47.418;19.080;2023-02-14T12:28:30;102203.06;;;9.69;56.98
63654;BME280;49809;47.418;19.080;2023-02-14T12:31:43;102196.63;;;9.97;56.97
63654;BME280;49809;47.418;19.080;2023-02-14T12:34:49;102194.59;;;9.32;58.12
63654;BME280;49809;47.418;19.080;2023-02-14T13:22:00;102150.12;;;9.01;58.10
63654;BME280;49809;47.418;19.080;2023-02-14T13:25:23;102150.19;;;9.08;59.44
63654;BME280;49809;47.418;19.080;2023-02-14T13:28:36;102145.88;;;9.00;58.62
63654;BME280;49809;47.418;19.080;2023-02-14T13:31:41;102147.00;;;9.26;58.11
63654;BME280;49809;47.418;19.080;2023-02-14T13:34:48;102146.75;;;9.81;56.61
63654;BME280;49809;47.418;19.080;2023-02-14T13:37:59;102146.00;;;10.20;56.59
63654;BME280;49809;47.418;19.080;2023-02-14T13:41:06;102143.13;;;10.02;56.90
63654;BME280;49809;47.418;19.080;2023-02-14T13:47:42;102140.69;;;10.60;55.50
63654;BME280;49809;47.418;19.080;2023-02-14T13:53:56;102134.34;;;10.61;54.43
63654;BME280;49809;47.418;19.080;2023-02-14T13:57:02;102137.78;;;9.69;56.35
63654;BME280;49809;47.418;19.080;2023-02-14T14:00:41;102136.56;;;9.78;56.42
63654;BME280;49809;47.418;19.080;2023-02-14T14:03:55;102140.47;;;10.09;55.23
63654;BME280;49809;47.418;19.080;2023-02-14T14:10:09;102146.78;;;10.08;55.52
63654;BME280;49809;47.418;19.080;2023-02-14T14:16:55;102147.66;;;8.93;59.56
63654;BME280;49809;47.418;19.080;2023-02-14T14:23:33;102145.50;;;9.64;57.34
63654;BME280;49809;47.418;19.080;2023-02-14T14:26:43;102140.84;;;9.73;57.81
63654;BME280;49809;47.418;19.080;2023-02-14T14:29:50;102144.34;;;10.13;57.37
63654;BME280;49809;47.418;19.080;2023-02-14T14:32:54;102146.81;;;10.34;56.01
63654;BME280;49809;47.418;19.080;2023-02-14T14:36:02;102137.38;;;9.66;57.61
63654;BME280;49809;47.418;19.080;2023-02-14T14:39:09;102145.75;;;9.22;59.69
63654;BME280;49809;47.418;19.080;2023-02-14T14:42:14;102140.03;;;9.11;60.57
63654;BME280;49809;47.418;19.080;2023-02-14T14:45:27;102130.53;;;8.76;62.17
63654;BME280;49809;47.418;19.080;2023-02-14T14:51:41;102146.72;;;8.17;64.20
63654;BME280;49809;47.418;19.080;2023-02-14T14:54:45;102142.09;;;7.98;64.83
63654;BME280;49809;47.418;19.080;2023-02-14T14:57:53;102153.50;;;7.84;65.69
63654;BME280;49809;47.418;19.080;2023-02-14T15:01:06;102150.16;;;7.75;66.23
63654;BME280;49809;47.418;19.080;2023-02-14T15:10:29;102146.00;;;7.45;67.85
63654;BME280;49809;47.418;19.080;2023-02-14T15:13:45;102140.25;;;7.41;68.11
63654;BME280;49809;47.418;19.080;2023-02-14T15:17:01;102141.81;;;7.36;68.27
63654;BME280;49809;47.418;19.080;2023-02-14T15:20:09;102139.19;;;7.21;68.75
63654;BME280;49809;47.418;19.080;2023-02-14T15:23:19;102138.59;;;7.05;69.51
63654;BME280;49809;47.418;19.080;2023-02-14T15:26:27;102143.44;;;7.01;69.80
63654;BME280;49809;47.418;19.080;2023-02-14T15:29:32;102136.06;;;6.96;70.13
63654;BME280;49809;47.418;19.080;2023-02-14T15:32:36;102151.78;;;6.90;70.65
63654;BME280;49809;47.418;19.080;2023-02-14T15:35:40;102140.53;;;6.81;71.13
63654;BME280;49809;47.418;19.080;2023-02-14T15:38:44;102150.66;;;6.70;71.74
63654;BME280;49809;47.418;19.080;2023-02-14T15:41:52;102141.66;;;6.49;72.84
63654;BME280;49809;47.418;19.080;2023-02-14T15:48:33;102143.19;;;6.29;74.15
63654;BME280;49809;47.418;19.080;2023-02-14T15:51:37;102152.56;;;6.09;74.72
63654;BME280;49809;47.418;19.080;2023-02-14T15:54:44;102139.81;;;5.98;75.29
63654;BME280;49809;47.418;19.080;2023-02-14T15:58:03;102143.72;;;5.79;76.17
63654;BME280;49809;47.418;19.080;2023-02-14T16:01:10;102146.34;;;5.48;76.89
63654;BME280;49809;47.418;19.080;2023-02-14T16:04:14;102143.47;;;5.35;78.95
63654;BME280;49809;47.418;19.080;2023-02-14T16:10:24;102151.91;;;5.22;79.62
63654;BME280;49809;47.418;19.080;2023-02-14T16:16:55;102160.84;;;4.97;80.63
63654;BME280;49809;47.418;19.080;2023-02-14T16:23:27;102163.50;;;4.89;80.67
63654;BME280;49809;47.418;19.080;2023-02-14T16:26:30;102162.47;;;5.06;80.10
63654;BME280;49809;47.418;19.080;2023-02-14T16:29:34;102171.19;;;4.91;80.30
63654;BME280;49809;47.418;19.080;2023-02-14T16:32:38;102174.69;;;4.75;81.17
63654;BME280;49809;47.418;19.080;2023-02-14T16:35:42;102172.87;;;4.75;80.86
63654;BME280;49809;47.418;19.080;2023-02-14T16:38:45;102181.28;;;4.55;81.46
63654;BME280;49809;47.418;19.080;2023-02-14T16:41:49;102181.94;;;4.32;82.89
63654;BME280;49809;47.418;19.080;2023-02-14T16:45:00;102185.69;;;4.22;83.50
63654;BME280;49809;47.418;19.080;2023-02-14T16:48:03;102189.66;;;4.02;83.83
63654;BME280;49809;47.418;19.080;2023-02-14T16:51:17;102184.38;;;3.93;84.52
63654;BME280;49809;47.418;19.080;2023-02-14T16:54:25;102194.69;;;3.87;85.26
63654;BME280;49809;47.418;19.080;2023-02-14T16:57:32;102195.19;;;3.82;85.84
63654;BME280;49809;47.418;19.080;2023-02-14T17:00:41;102194.31;;;3.66;86.13
63654;BME280;49809;47.418;19.080;2023-02-14T17:03:45;102199.53;;;3.58;86.82
63654;BME280;49809;47.418;19.080;2023-02-14T17:06:52;102192.59;;;3.40;87.84
63654;BME280;49809;47.418;19.080;2023-02-14T17:10:05;102196.41;;;3.20;88.06
63654;BME280;49809;47.418;19.080;2023-02-14T17:13:12;102202.06;;;2.99;89.15
63654;BME280;49809;47.418;19.080;2023-02-14T17:16:17;102196.50;;;2.77;89.85
63654;BME280;49809;47.418;19.080;2023-02-14T17:19:23;102206.03;;;2.60;91.13
63654;BME280;49809;47.418;19.080;2023-02-14T17:22:41;102211.75;;;2.38;91.65
63654;BME280;49809;47.418;19.080;2023-02-14T17:25:47;102215.78;;;2.14;92.57
63654;BME280;49809;47.418;19.080;2023-02-14T17:28:51;102212.16;;;2.07;93.60
63654;BME280;49809;47.418;19.080;2023-02-14T17:31:56;102214.28;;;1.94;94.31
63654;BME280;49809;47.418;19.080;2023-02-14T17:34:59;102213.00;;;1.81;94.61
63654;BME280;49809;47.418;19.080;2023-02-14T17:38:05;102212.19;;;1.80;95.66
63654;BME280;49809;47.418;19.080;2023-02-14T17:41:15;102215.84;;;2.40;94.94
63654;BME280;49809;47.418;19.080;2023-02-14T17:44:19;102201.28;;;2.55;93.98
63654;BME280;49809;47.418;19.080;2023-02-14T17:47:24;102216.75;;;2.49;93.89
63654;BME280;49809;47.418;19.080;2023-02-14T17:50:31;102206.03;;;2.60;93.57
63654;BME280;49809;47.418;19.080;2023-02-14T17:53:34;102210.97;;;2.63;93.46
63654;BME280;49809;47.418;19.080;2023-02-14T17:56:40;102215.81;;;2.76;93.02
63654;BME280;49809;47.418;19.080;2023-02-14T17:59:43;102211.78;;;2.63;93.41
63654;BME280;49809;47.418;19.080;2023-02-14T18:02:52;102214.13;;;2.49;93.73
63654;BME280;49809;47.418;19.080;2023-02-14T18:05:57;102204.69;;;2.12;94.24
63654;BME280;49809;47.418;19.080;2023-02-14T18:09:03;102201.91;;;1.96;95.35
63654;BME280;49809;47.418;19.080;2023-02-14T18:12:07;102202.63;;;1.71;95.81
63654;BME280;49809;47.418;19.080;2023-02-14T18:15:16;102192.28;;;1.52;96.60
63654;BME280;49809;47.418;19.080;2023-02-14T18:18:23;102188.28;;;1.30;97.30
63654;BME280;49809;47.418;19.080;2023-02-14T18:21:33;102198.50;;;1.14;98.16
63654;BME280;49809;47.418;19.080;2023-02-14T18:24:38;102194.97;;;1.05;98.61
63654;BME280;49809;47.418;19.080;2023-02-14T18:27:43;102204.31;;;0.98;99.21
63654;BME280;49809;47.418;19.080;2023-02-14T18:30:47;102198.91;;;0.82;99.95
63654;BME280;49809;47.418;19.080;2023-02-14T18:33:53;102192.56;;;0.84;100.00
63654;BME280;49809;47.418;19.080;2023-02-14T18:37:00;102199.47;;;0.66;100.00
63654;BME280;49809;47.418;19.080;2023-02-14T18:40:13;102198.12;;;0.53;100.00
63654;BME280;49809;47.418;19.080;2023-02-14T18:43:26;102189.63;;;0.41;100.00
63654;BME280;49809;47.418;19.080;2023-02-14T18:46:33;102201.72;;;0.32;100.00
63654;BME280;49809;47.418;19.080;2023-02-14T18:49:40;102206.22;;;0.21;100.00
63654;BME280;49809;47.418;19.080;2023-02-14T18:52:47;102201.19;;;0.10;100.00
63654;BME280;49809;47.418;19.080;2023-02-14T18:55:51;102203.63;;;0.11;100.00
63654;BME280;49809;47.418;19.080;2023-02-14T18:58:58;102203.50;;;0.13;100.00
63654;BME280;49809;47.418;19.080;2023-02-14T19:02:15;102199.94;;;0.04;100.00
63654;BME280;49809;47.418;19.080;2023-02-14T19:05:22;102199.34;;;-0.09;100.00
63654;BME280;49809;47.418;19.080;2023-02-14T19:08:31;102203.47;;;-0.16;100.00
63654;BME280;49809;47.418;19.080;2023-02-14T19:11:37;102201.12;;;-0.19;100.00
63654;BME280;49809;47.418;19.080;2023-02-14T19:14:41;102210.34;;;-0.15;100.00